sensor_id;sensor_type;location;lat;lon;timestamp;P1;durP1;ratioP1;P2;durP2;ratioP2
3939;SDS011;1984;48.312;9.244;2022-10-28T00:00:48;13.70;;;5.23;;
3939;SDS011;1984;48.312;9.244;2022-10-28T00:03:15;6.63;;;4.20;;
3939;SDS011;1984;48.312;9.244;2022-10-28T00:05:41;10.00;;;3.80;;
3939;SDS011;1984;48.312;9.244;2022-10-28T00:08:06;6.57;;;3.67;;
3939;SDS011;1984;48.312;9.244;2022-10-28T00:10:32;9.60;;;3.67;;
3939;SDS011;1984;48.312;9.244;2022-10-28T00:12:58;8.77;;;3.87;;
3939;SDS011;1984;48.312;9.244;2022-10-28T00:15:23;6.77;;;3.83;;
3939;SDS011;1984;48.312;9.244;2022-10-28T00:17:49;6.53;;;3.63;;
3939;SDS011;1984;48.312;9.244;2022-10-28T00:20:14;12.80;;;4.40;;
3939;SDS011;1984;48.312;9.244;2022-10-28T00:22:40;7.73;;;4.00;;
3939;SDS011;1984;48.312;9.244;2022-10-28T00:25:06;9.70;;;5.07;;
3939;SDS011;1984;48.312;9.244;2022-10-28T00:27:32;18.80;;;4.30;;
3939;SDS011;1984;48.312;9.244;2022-10-28T00:29:59;9.70;;;4.03;;
3939;SDS011;1984;48.312;9.244;2022-10-28T00:32:27;9.10;;;3.80;;
3939;SDS011;1984;48.312;9.244;2022-10-28T00:34:56;12.27;;;3.90;;
3939;SDS011;1984;48.312;9.244;2022-10-28T00:37:22;8.53;;;4.23;;
3939;SDS011;1984;48.312;9.244;2022-10-28T00:39:48;6.73;;;3.83;;
3939;SDS011;1984;48.312;9.244;2022-10-28T00:42:14;4.63;;;3.37;;
3939;SDS011;1984;48.312;9.244;2022-10-28T00:52:33;7.83;;;4.87;;
3939;SDS011;1984;48.312;9.244;2022-10-28T00:54:59;10.30;;;4.30;;
3939;SDS011;1984;48.312;9.244;2022-10-28T00:57:29;7.53;;;4.57;;
3939;SDS011;1984;48.312;9.244;2022-10-28T00:59:57;9.47;;;5.13;;
3939;SDS011;1984;48.312;9.244;2022-10-28T01:02:24;7.73;;;4.53;;
3939;SDS011;1984;48.312;9.244;2022-10-28T01:04:50;11.77;;;5.40;;
3939;SDS011;1984;48.312;9.244;2022-10-28T01:07:16;10.73;;;5.23;;
3939;SDS011;1984;48.312;9.244;2022-10-28T01:09:42;7.57;;;4.53;;
3939;SDS011;1984;48.312;9.244;2022-10-28T01:14:53;10.67;;;4.37;;
3939;SDS011;1984;48.312;9.244;2022-10-28T01:17:58;5.90;;;3.90;;
3939;SDS011;1984;48.312;9.244;2022-10-28T01:24:29;9.00;;;3.97;;
3939;SDS011;1984;48.312;9.244;2022-10-28T01:28:06;6.10;;;3.50;;
3939;SDS011;1984;48.312;9.244;2022-10-28T01:30:18;11.53;;;4.83;;
3939;SDS011;1984;48.312;9.244;2022-10-28T01:33:00;6.97;;;3.90;;
3939;SDS011;1984;48.312;9.244;2022-10-28T01:35:43;7.90;;;4.37;;
3939;SDS011;1984;48.312;9.244;2022-10-28T01:38:26;9.07;;;4.17;;
3939;SDS011;1984;48.312;9.244;2022-10-28T01:41:12;13.50;;;3.93;;
3939;SDS011;1984;48.312;9.244;2022-10-28T01:43:59;10.47;;;4.20;;
3939;SDS011;1984;48.312;9.244;2022-10-28T01:46:48;4.37;;;3.30;;
3939;SDS011;1984;48.312;9.244;2022-10-28T01:49:47;16.07;;;4.07;;
3939;SDS011;1984;48.312;9.244;2022-10-28T01:52:19;11.30;;;3.80;;
3939;SDS011;1984;48.312;9.244;2022-10-28T01:54:49;5.77;;;3.30;;
3939;SDS011;1984;48.312;9.244;2022-10-28T01:57:18;25.80;;;4.37;;
3939;SDS011;1984;48.312;9.244;2022-10-28T01:59:47;11.33;;;4.30;;
3939;SDS011;1984;48.312;9.244;2022-10-28T02:02:14;9.27;;;4.27;;
3939;SDS011;1984;48.312;9.244;2022-10-28T02:04:41;9.93;;;3.57;;
3939;SDS011;1984;48.312;9.244;2022-10-28T02:07:06;8.27;;;4.57;;
3939;SDS011;1984;48.312;9.244;2022-10-28T02:14:47;6.33;;;3.87;;
3939;SDS011;1984;48.312;9.244;2022-10-28T02:20:47;14.70;;;4.40;;
3939;SDS011;1984;48.312;9.244;2022-10-28T02:25:53;5.90;;;3.43;;
3939;SDS011;1984;48.312;9.244;2022-10-28T02:34:27;11.47;;;4.10;;
3939;SDS011;1984;48.312;9.244;2022-10-28T02:36:57;12.20;;;4.20;;
3939;SDS011;1984;48.312;9.244;2022-10-28T02:39:27;12.97;;;4.40;;
3939;SDS011;1984;48.312;9.244;2022-10-28T02:41:58;12.13;;;4.90;;
3939;SDS011;1984;48.312;9.244;2022-10-28T02:44:29;9.70;;;4.07;;
3939;SDS011;1984;48.312;9.244;2022-10-28T02:46:58;6.60;;;4.23;;
3939;SDS011;1984;48.312;9.244;2022-10-28T02:49:29;9.93;;;4.30;;
3939;SDS011;1984;48.312;9.244;2022-10-28T02:51:58;7.60;;;4.17;;
3939;SDS011;1984;48.312;9.244;2022-10-28T02:54:28;16.13;;;4.70;;
3939;SDS011;1984;48.312;9.244;2022-10-28T02:59:36;16.40;;;4.27;;
3939;SDS011;1984;48.312;9.244;2022-10-28T03:02:02;24.13;;;3.80;;
3939;SDS011;1984;48.312;9.244;2022-10-28T03:04:29;7.43;;;4.40;;
3939;SDS011;1984;48.312;9.244;2022-10-28T03:06:54;6.50;;;3.67;;
3939;SDS011;1984;48.312;9.244;2022-10-28T03:09:20;7.03;;;3.63;;
3939;SDS011;1984;48.312;9.244;2022-10-28T03:11:45;13.13;;;5.10;;
3939;SDS011;1984;48.312;9.244;2022-10-28T03:14:11;8.70;;;4.07;;
3939;SDS011;1984;48.312;9.244;2022-10-28T03:16:36;21.70;;;3.93;;
3939;SDS011;1984;48.312;9.244;2022-10-28T03:19:02;16.33;;;4.00;;
3939;SDS011;1984;48.312;9.244;2022-10-28T03:21:27;6.37;;;4.33;;
3939;SDS011;1984;48.312;9.244;2022-10-28T03:23:53;7.67;;;3.90;;
3939;SDS011;1984;48.312;9.244;2022-10-28T03:26:19;6.23;;;3.03;;
3939;SDS011;1984;48.312;9.244;2022-10-28T03:28:44;6.43;;;3.20;;
3939;SDS011;1984;48.312;9.244;2022-10-28T03:31:10;7.87;;;3.77;;
3939;SDS011;1984;48.312;9.244;2022-10-28T03:33:36;6.67;;;4.07;;
3939;SDS011;1984;48.312;9.244;2022-10-28T03:36:01;8.80;;;3.97;;
3939;SDS011;1984;48.312;9.244;2022-10-28T03:38:27;6.23;;;3.70;;
3939;SDS011;1984;48.312;9.244;2022-10-28T03:40:52;9.70;;;4.40;;
3939;SDS011;1984;48.312;9.244;2022-10-28T03:43:18;12.40;;;4.13;;
3939;SDS011;1984;48.312;9.244;2022-10-28T03:45:43;7.53;;;4.53;;
3939;SDS011;1984;48.312;9.244;2022-10-28T03:48:09;9.43;;;3.80;;
3939;SDS011;1984;48.312;9.244;2022-10-28T03:50:34;6.30;;;4.10;;
3939;SDS011;1984;48.312;9.244;2022-10-28T03:53:00;13.73;;;5.10;;
3939;SDS011;1984;48.312;9.244;2022-10-28T03:55:26;12.97;;;4.57;;
3939;SDS011;1984;48.312;9.244;2022-10-28T03:57:52;9.43;;;4.50;;
3939;SDS011;1984;48.312;9.244;2022-10-28T04:00:18;8.47;;;4.87;;
3939;SDS011;1984;48.312;9.244;2022-10-28T04:02:50;6.73;;;3.87;;
3939;SDS011;1984;48.312;9.244;2022-10-28T04:05:17;9.63;;;4.30;;
3939;SDS011;1984;48.312;9.244;2022-10-28T04:07:43;11.10;;;5.03;;
3939;SDS011;1984;48.312;9.244;2022-10-28T04:10:09;10.20;;;4.73;;
3939;SDS011;1984;48.312;9.244;2022-10-28T04:12:34;13.23;;;4.77;;
3939;SDS011;1984;48.312;9.244;2022-10-28T04:15:00;8.50;;;4.57;;
3939;SDS011;1984;48.312;9.244;2022-10-28T04:17:25;7.73;;;4.27;;
3939;SDS011;1984;48.312;9.244;2022-10-28T04:19:51;9.80;;;5.30;;
3939;SDS011;1984;48.312;9.244;2022-10-28T04:22:17;10.73;;;4.17;;
3939;SDS011;1984;48.312;9.244;2022-10-28T04:24:42;13.80;;;4.70;;
3939;SDS011;1984;48.312;9.244;2022-10-28T04:27:08;9.40;;;4.47;;
3939;SDS011;1984;48.312;9.244;2022-10-28T04:29:33;14.33;;;4.90;;
3939;SDS011;1984;48.312;9.244;2022-10-28T04:31:59;7.73;;;4.70;;
3939;SDS011;1984;48.312;9.244;2022-10-28T04:34:24;6.40;;;4.20;;
3939;SDS011;1984;48.312;9.244;2022-10-28T04:36:50;10.20;;;4.30;;
3939;SDS011;1984;48.312;9.244;2022-10-28T04:39:16;15.83;;;4.50;;
3939;SDS011;1984;48.312;9.244;2022-10-28T04:41:41;8.17;;;4.10;;
3939;SDS011;1984;48.312;9.244;2022-10-28T04:44:07;8.10;;;4.27;;
3939;SDS011;1984;48.312;9.244;2022-10-28T04:46:32;8.63;;;3.90;;
3939;SDS011;1984;48.312;9.244;2022-10-28T04:48:58;8.60;;;3.67;;
3939;SDS011;1984;48.312;9.244;2022-10-28T04:51:23;6.53;;;4.30;;
3939;SDS011;1984;48.312;9.244;2022-10-28T04:53:49;8.50;;;3.77;;
3939;SDS011;1984;48.312;9.244;2022-10-28T04:56:14;5.50;;;3.20;;
3939;SDS011;1984;48.312;9.244;2022-10-28T04:58:40;7.03;;;3.63;;
3939;SDS011;1984;48.312;9.244;2022-10-28T05:01:06;7.40;;;3.43;;
3939;SDS011;1984;48.312;9.244;2022-10-28T05:03:33;7.70;;;3.23;;
3939;SDS011;1984;48.312;9.244;2022-10-28T05:05:58;16.27;;;6.37;;
3939;SDS011;1984;48.312;9.244;2022-10-28T05:08:24;16.87;;;5.00;;
3939;SDS011;1984;48.312;9.244;2022-10-28T05:10:50;10.17;;;3.20;;
3939;SDS011;1984;48.312;9.244;2022-10-28T05:13:16;13.13;;;3.60;;
3939;SDS011;1984;48.312;9.244;2022-10-28T05:15:42;5.47;;;3.10;;
3939;SDS011;1984;48.312;9.244;2022-10-28T05:18:07;8.60;;;3.17;;
3939;SDS011;1984;48.312;9.244;2022-10-28T05:20:33;17.03;;;4.07;;
3939;SDS011;1984;48.312;9.244;2022-10-28T05:22:59;11.13;;;4.07;;
3939;SDS011;1984;48.312;9.244;2022-10-28T05:25:24;8.03;;;4.40;;
3939;SDS011;1984;48.312;9.244;2022-10-28T05:27:50;6.33;;;3.57;;
3939;SDS011;1984;48.312;9.244;2022-10-28T05:30:16;10.47;;;3.63;;
3939;SDS011;1984;48.312;9.244;2022-10-28T05:32:42;8.07;;;3.57;;
3939;SDS011;1984;48.312;9.244;2022-10-28T05:35:08;5.90;;;3.70;;
3939;SDS011;1984;48.312;9.244;2022-10-28T05:37:34;7.93;;;3.60;;
3939;SDS011;1984;48.312;9.244;2022-10-28T05:40:00;9.90;;;3.33;;
3939;SDS011;1984;48.312;9.244;2022-10-28T05:42:26;8.87;;;3.30;;
3939;SDS011;1984;48.312;9.244;2022-10-28T05:44:51;6.50;;;3.67;;
3939;SDS011;1984;48.312;9.244;2022-10-28T05:47:17;5.37;;;2.73;;
3939;SDS011;1984;48.312;9.244;2022-10-28T05:49:42;5.67;;;3.63;;
3939;SDS011;1984;48.312;9.244;2022-10-28T05:52:08;5.80;;;3.10;;
3939;SDS011;1984;48.312;9.244;2022-10-28T05:54:33;8.43;;;3.40;;
3939;SDS011;1984;48.312;9.244;2022-10-28T05:56:59;9.47;;;3.63;;
3939;SDS011;1984;48.312;9.244;2022-10-28T05:59:24;8.37;;;3.43;;
3939;SDS011;1984;48.312;9.244;2022-10-28T06:01:50;10.67;;;3.33;;
3939;SDS011;1984;48.312;9.244;2022-10-28T06:04:15;8.70;;;3.43;;
3939;SDS011;1984;48.312;9.244;2022-10-28T06:06:41;8.83;;;3.10;;
3939;SDS011;1984;48.312;9.244;2022-10-28T06:09:06;10.00;;;4.10;;
3939;SDS011;1984;48.312;9.244;2022-10-28T06:11:33;10.53;;;4.50;;
3939;SDS011;1984;48.312;9.244;2022-10-28T06:13:59;8.40;;;4.67;;
3939;SDS011;1984;48.312;9.244;2022-10-28T06:16:24;11.70;;;4.60;;
3939;SDS011;1984;48.312;9.244;2022-10-28T06:18:50;8.63;;;4.43;;
3939;SDS011;1984;48.312;9.244;2022-10-28T06:21:16;7.17;;;4.80;;
3939;SDS011;1984;48.312;9.244;2022-10-28T06:23:41;9.07;;;5.73;;
3939;SDS011;1984;48.312;9.244;2022-10-28T06:26:07;11.17;;;4.93;;
3939;SDS011;1984;48.312;9.244;2022-10-28T06:28:33;16.00;;;5.63;;
3939;SDS011;1984;48.312;9.244;2022-10-28T06:31:03;8.87;;;5.13;;
3939;SDS011;1984;48.312;9.244;2022-10-28T06:33:30;13.40;;;5.30;;
3939;SDS011;1984;48.312;9.244;2022-10-28T06:35:57;14.20;;;5.37;;
3939;SDS011;1984;48.312;9.244;2022-10-28T06:38:23;8.07;;;5.00;;
3939;SDS011;1984;48.312;9.244;2022-10-28T06:40:50;13.37;;;3.80;;
3939;SDS011;1984;48.312;9.244;2022-10-28T06:43:15;10.13;;;4.33;;
3939;SDS011;1984;48.312;9.244;2022-10-28T06:45:41;9.37;;;4.70;;
3939;SDS011;1984;48.312;9.244;2022-10-28T06:48:07;10.07;;;5.20;;
3939;SDS011;1984;48.312;9.244;2022-10-28T06:50:34;9.23;;;4.70;;
3939;SDS011;1984;48.312;9.244;2022-10-28T06:53:00;10.10;;;4.83;;
3939;SDS011;1984;48.312;9.244;2022-10-28T06:55:26;11.00;;;5.03;;
3939;SDS011;1984;48.312;9.244;2022-10-28T06:57:52;9.97;;;4.57;;
3939;SDS011;1984;48.312;9.244;2022-10-28T07:00:18;7.77;;;3.83;;
3939;SDS011;1984;48.312;9.244;2022-10-28T07:02:44;12.23;;;3.93;;
3939;SDS011;1984;48.312;9.244;2022-10-28T07:05:14;7.50;;;3.90;;
3939;SDS011;1984;48.312;9.244;2022-10-28T07:07:40;8.73;;;3.80;;
3939;SDS011;1984;48.312;9.244;2022-10-28T07:10:06;15.07;;;5.07;;
3939;SDS011;1984;48.312;9.244;2022-10-28T07:12:31;12.03;;;5.37;;
3939;SDS011;1984;48.312;9.244;2022-10-28T07:14:57;13.20;;;4.50;;
3939;SDS011;1984;48.312;9.244;2022-10-28T07:17:22;13.30;;;5.00;;
3939;SDS011;1984;48.312;9.244;2022-10-28T07:19:48;79.83;;;12.60;;
3939;SDS011;1984;48.312;9.244;2022-10-28T07:22:13;31.80;;;6.90;;
3939;SDS011;1984;48.312;9.244;2022-10-28T07:24:39;49.43;;;12.70;;
3939;SDS011;1984;48.312;9.244;2022-10-28T07:27:06;50.67;;;8.30;;
3939;SDS011;1984;48.312;9.244;2022-10-28T07:29:32;54.37;;;7.20;;
3939;SDS011;1984;48.312;9.244;2022-10-28T07:31:57;50.53;;;7.60;;
3939;SDS011;1984;48.312;9.244;2022-10-28T07:34:23;19.13;;;6.10;;
3939;SDS011;1984;48.312;9.244;2022-10-28T07:36:49;23.27;;;6.23;;
3939;SDS011;1984;48.312;9.244;2022-10-28T07:39:16;28.30;;;8.30;;
3939;SDS011;1984;48.312;9.244;2022-10-28T07:41:42;20.67;;;9.17;;
3939;SDS011;1984;48.312;9.244;2022-10-28T07:44:07;16.10;;;7.23;;
3939;SDS011;1984;48.312;9.244;2022-10-28T07:46:33;24.67;;;8.97;;
3939;SDS011;1984;48.312;9.244;2022-10-28T07:48:59;19.83;;;7.10;;
3939;SDS011;1984;48.312;9.244;2022-10-28T07:51:24;37.67;;;9.13;;
3939;SDS011;1984;48.312;9.244;2022-10-28T07:53:50;60.70;;;7.37;;
3939;SDS011;1984;48.312;9.244;2022-10-28T07:56:16;19.70;;;7.03;;
3939;SDS011;1984;48.312;9.244;2022-10-28T07:58:42;13.10;;;6.67;;
3939;SDS011;1984;48.312;9.244;2022-10-28T08:01:09;19.20;;;7.20;;
3939;SDS011;1984;48.312;9.244;2022-10-28T08:03:36;42.97;;;11.10;;
3939;SDS011;1984;48.312;9.244;2022-10-28T08:06:04;29.13;;;10.50;;
3939;SDS011;1984;48.312;9.244;2022-10-28T08:08:36;15.83;;;7.63;;
3939;SDS011;1984;48.312;9.244;2022-10-28T08:11:09;15.10;;;6.77;;
3939;SDS011;1984;48.312;9.244;2022-10-28T08:13:35;18.33;;;7.50;;
3939;SDS011;1984;48.312;9.244;2022-10-28T08:16:01;12.60;;;7.67;;
3939;SDS011;1984;48.312;9.244;2022-10-28T08:18:26;9.90;;;7.73;;
3939;SDS011;1984;48.312;9.244;2022-10-28T08:20:52;13.70;;;7.17;;
3939;SDS011;1984;48.312;9.244;2022-10-28T08:23:17;16.60;;;7.30;;
3939;SDS011;1984;48.312;9.244;2022-10-28T08:25:49;20.97;;;13.37;;
3939;SDS011;1984;48.312;9.244;2022-10-28T08:28:16;45.43;;;20.90;;
3939;SDS011;1984;48.312;9.244;2022-10-28T08:30:42;20.00;;;6.90;;
3939;SDS011;1984;48.312;9.244;2022-10-28T08:33:08;9.30;;;4.73;;
3939;SDS011;1984;48.312;9.244;2022-10-28T08:35:34;7.67;;;4.30;;
3939;SDS011;1984;48.312;9.244;2022-10-28T08:38:00;21.23;;;4.80;;
3939;SDS011;1984;48.312;9.244;2022-10-28T08:41:11;39.47;;;17.60;;
3939;SDS011;1984;48.312;9.244;2022-10-28T08:43:29;6.17;;;3.17;;
3939;SDS011;1984;48.312;9.244;2022-10-28T08:48:55;5.93;;;2.53;;
3939;SDS011;1984;48.312;9.244;2022-10-28T08:51:22;8.70;;;2.43;;
3939;SDS011;1984;48.312;9.244;2022-10-28T08:54:10;14.53;;;3.77;;
3939;SDS011;1984;48.312;9.244;2022-10-28T08:56:41;4.93;;;2.43;;
3939;SDS011;1984;48.312;9.244;2022-10-28T08:59:12;35.17;;;3.50;;
3939;SDS011;1984;48.312;9.244;2022-10-28T09:01:45;6.10;;;2.40;;
3939;SDS011;1984;48.312;9.244;2022-10-28T09:07:00;7.43;;;2.77;;
3939;SDS011;1984;48.312;9.244;2022-10-28T09:09:26;4.77;;;2.30;;
3939;SDS011;1984;48.312;9.244;2022-10-28T09:12:07;11.40;;;2.70;;
3939;SDS011;1984;48.312;9.244;2022-10-28T09:17:52;9.73;;;2.73;;
3939;SDS011;1984;48.312;9.244;2022-10-28T09:20:24;6.17;;;2.87;;
3939;SDS011;1984;48.312;9.244;2022-10-28T09:22:56;4.67;;;2.10;;
3939;SDS011;1984;48.312;9.244;2022-10-28T09:30:44;11.83;;;2.87;;
3939;SDS011;1984;48.312;9.244;2022-10-28T09:33:30;16.27;;;2.90;;
3939;SDS011;1984;48.312;9.244;2022-10-28T09:36:04;7.20;;;2.67;;
3939;SDS011;1984;48.312;9.244;2022-10-28T09:38:34;7.17;;;2.60;;
3939;SDS011;1984;48.312;9.244;2022-10-28T09:41:09;1.97;;;1.50;;
3939;SDS011;1984;48.312;9.244;2022-10-28T09:44:05;9.90;;;2.40;;
3939;SDS011;1984;48.312;9.244;2022-10-28T09:46:52;13.87;;;2.17;;
3939;SDS011;1984;48.312;9.244;2022-10-28T09:49:22;9.40;;;2.80;;
3939;SDS011;1984;48.312;9.244;2022-10-28T09:51:59;11.47;;;3.27;;
3939;SDS011;1984;48.312;9.244;2022-10-28T09:54:34;12.50;;;3.10;;
3939;SDS011;1984;48.312;9.244;2022-10-28T09:57:03;4.33;;;2.10;;
3939;SDS011;1984;48.312;9.244;2022-10-28T09:59:29;18.20;;;2.60;;
3939;SDS011;1984;48.312;9.244;2022-10-28T10:01:55;6.00;;;2.33;;
3939;SDS011;1984;48.312;9.244;2022-10-28T10:04:22;9.43;;;2.60;;
3939;SDS011;1984;48.312;9.244;2022-10-28T10:06:51;11.20;;;2.70;;
3939;SDS011;1984;48.312;9.244;2022-10-28T10:09:23;2.97;;;2.10;;
3939;SDS011;1984;48.312;9.244;2022-10-28T10:11:52;5.30;;;2.80;;
3939;SDS011;1984;48.312;9.244;2022-10-28T10:14:49;10.53;;;2.60;;
3939;SDS011;1984;48.312;9.244;2022-10-28T10:17:22;8.00;;;2.27;;
3939;SDS011;1984;48.312;9.244;2022-10-28T10:22:30;4.70;;;2.93;;
3939;SDS011;1984;48.312;9.244;2022-10-28T10:27:51;9.10;;;2.50;;
3939;SDS011;1984;48.312;9.244;2022-10-28T10:30:22;7.70;;;1.97;;
3939;SDS011;1984;48.312;9.244;2022-10-28T10:32:50;5.00;;;2.47;;
3939;SDS011;1984;48.312;9.244;2022-10-28T10:35:22;5.40;;;2.20;;
3939;SDS011;1984;48.312;9.244;2022-10-28T10:37:50;7.97;;;2.03;;
3939;SDS011;1984;48.312;9.244;2022-10-28T10:46:15;12.87;;;2.70;;
3939;SDS011;1984;48.312;9.244;2022-10-28T10:48:41;6.90;;;2.60;;
3939;SDS011;1984;48.312;9.244;2022-10-28T10:51:10;11.13;;;2.20;;
3939;SDS011;1984;48.312;9.244;2022-10-28T10:53:40;3.73;;;2.23;;
3939;SDS011;1984;48.312;9.244;2022-10-28T10:56:06;9.07;;;2.53;;
3939;SDS011;1984;48.312;9.244;2022-10-28T10:58:37;13.17;;;2.20;;
3939;SDS011;1984;48.312;9.244;2022-10-28T11:01:05;10.60;;;2.60;;
3939;SDS011;1984;48.312;9.244;2022-10-28T11:03:34;9.90;;;3.93;;
3939;SDS011;1984;48.312;9.244;2022-10-28T11:06:03;8.00;;;1.77;;
3939;SDS011;1984;48.312;9.244;2022-10-28T11:08:35;12.60;;;1.87;;
3939;SDS011;1984;48.312;9.244;2022-10-28T11:11:13;5.47;;;2.40;;
3939;SDS011;1984;48.312;9.244;2022-10-28T11:13:44;12.07;;;2.37;;
3939;SDS011;1984;48.312;9.244;2022-10-28T11:16:17;9.03;;;3.37;;
3939;SDS011;1984;48.312;9.244;2022-10-28T11:18:46;5.00;;;2.83;;
3939;SDS011;1984;48.312;9.244;2022-10-28T11:21:18;8.13;;;3.73;;
3939;SDS011;1984;48.312;9.244;2022-10-28T11:24:07;10.20;;;3.90;;
3939;SDS011;1984;48.312;9.244;2022-10-28T11:26:57;7.13;;;2.27;;
3939;SDS011;1984;48.312;9.244;2022-10-28T11:29:31;11.27;;;2.13;;
3939;SDS011;1984;48.312;9.244;2022-10-28T11:32:10;13.60;;;2.63;;
3939;SDS011;1984;48.312;9.244;2022-10-28T11:43:29;14.10;;;2.53;;
3939;SDS011;1984;48.312;9.244;2022-10-28T11:46:09;14.47;;;2.50;;
3939;SDS011;1984;48.312;9.244;2022-10-28T11:54:16;11.73;;;3.17;;
3939;SDS011;1984;48.312;9.244;2022-10-28T11:56:48;12.93;;;2.27;;
3939;SDS011;1984;48.312;9.244;2022-10-28T12:05:28;5.97;;;2.20;;
3939;SDS011;1984;48.312;9.244;2022-10-28T12:08:10;5.83;;;2.30;;
3939;SDS011;1984;48.312;9.244;2022-10-28T12:10:49;5.87;;;2.50;;
3939;SDS011;1984;48.312;9.244;2022-10-28T12:13:25;10.47;;;3.30;;
3939;SDS011;1984;48.312;9.244;2022-10-28T12:18:24;17.17;;;3.30;;
3939;SDS011;1984;48.312;9.244;2022-10-28T12:21:07;21.00;;;3.10;;
3939;SDS011;1984;48.312;9.244;2022-10-28T12:23:36;39.50;;;3.70;;
3939;SDS011;1984;48.312;9.244;2022-10-28T12:26:04;7.73;;;2.20;;
3939;SDS011;1984;48.312;9.244;2022-10-28T12:28:32;41.30;;;2.67;;
3939;SDS011;1984;48.312;9.244;2022-10-28T12:31:05;5.10;;;2.40;;
3939;SDS011;1984;48.312;9.244;2022-10-28T12:33:43;7.07;;;2.03;;
3939;SDS011;1984;48.312;9.244;2022-10-28T12:36:15;7.40;;;1.67;;
3939;SDS011;1984;48.312;9.244;2022-10-28T12:39:00;23.40;;;2.97;;
3939;SDS011;1984;48.312;9.244;2022-10-28T12:44:36;7.20;;;2.13;;
3939;SDS011;1984;48.312;9.244;2022-10-28T12:47:14;4.47;;;2.07;;
3939;SDS011;1984;48.312;9.244;2022-10-28T12:50:08;13.17;;;2.07;;
3939;SDS011;1984;48.312;9.244;2022-10-28T12:55:37;5.37;;;2.30;;
3939;SDS011;1984;48.312;9.244;2022-10-28T12:58:11;10.07;;;4.60;;
3939;SDS011;1984;48.312;9.244;2022-10-28T13:00:45;7.50;;;2.83;;
3939;SDS011;1984;48.312;9.244;2022-10-28T13:03:14;9.53;;;1.70;;
3939;SDS011;1984;48.312;9.244;2022-10-28T13:08:57;9.57;;;1.90;;
3939;SDS011;1984;48.312;9.244;2022-10-28T13:12:54;13.07;;;2.50;;
3939;SDS011;1984;48.312;9.244;2022-10-28T13:15:34;8.40;;;2.30;;
3939;SDS011;1984;48.312;9.244;2022-10-28T13:21:00;15.03;;;5.50;;
3939;SDS011;1984;48.312;9.244;2022-10-28T13:23:50;8.10;;;2.00;;
3939;SDS011;1984;48.312;9.244;2022-10-28T13:26:42;10.77;;;2.30;;
3939;SDS011;1984;48.312;9.244;2022-10-28T13:29:17;9.87;;;2.20;;
3939;SDS011;1984;48.312;9.244;2022-10-28T13:31:49;12.30;;;3.07;;
3939;SDS011;1984;48.312;9.244;2022-10-28T13:34:16;4.20;;;1.77;;
3939;SDS011;1984;48.312;9.244;2022-10-28T13:36:46;8.83;;;3.00;;
3939;SDS011;1984;48.312;9.244;2022-10-28T13:39:21;5.90;;;1.50;;
3939;SDS011;1984;48.312;9.244;2022-10-28T13:52:30;12.60;;;2.93;;
3939;SDS011;1984;48.312;9.244;2022-10-28T13:54:56;58.10;;;4.80;;
3939;SDS011;1984;48.312;9.244;2022-10-28T13:59:54;8.23;;;1.90;;
3939;SDS011;1984;48.312;9.244;2022-10-28T14:05:15;21.97;;;2.30;;
3939;SDS011;1984;48.312;9.244;2022-10-28T14:08:00;3.27;;;1.73;;
3939;SDS011;1984;48.312;9.244;2022-10-28T14:10:27;4.47;;;1.67;;
3939;SDS011;1984;48.312;9.244;2022-10-28T14:15:23;18.30;;;3.80;;
3939;SDS011;1984;48.312;9.244;2022-10-28T14:17:53;13.87;;;2.40;;
3939;SDS011;1984;48.312;9.244;2022-10-28T14:20:27;10.63;;;1.70;;
3939;SDS011;1984;48.312;9.244;2022-10-28T14:44:55;4.13;;;2.03;;
3939;SDS011;1984;48.312;9.244;2022-10-28T14:50:25;11.13;;;2.63;;
3939;SDS011;1984;48.312;9.244;2022-10-28T14:53:04;8.40;;;2.70;;
3939;SDS011;1984;48.312;9.244;2022-10-28T14:55:58;12.27;;;2.50;;
3939;SDS011;1984;48.312;9.244;2022-10-28T14:58:30;11.00;;;3.50;;
3939;SDS011;1984;48.312;9.244;2022-10-28T15:03:42;3.97;;;2.00;;
3939;SDS011;1984;48.312;9.244;2022-10-28T15:06:22;2.83;;;1.70;;
3939;SDS011;1984;48.312;9.244;2022-10-28T15:08:49;9.87;;;1.90;;
3939;SDS011;1984;48.312;9.244;2022-10-28T15:11:15;6.27;;;2.20;;
3939;SDS011;1984;48.312;9.244;2022-10-28T15:13:42;9.93;;;2.90;;
3939;SDS011;1984;48.312;9.244;2022-10-28T15:16:23;4.17;;;1.90;;
3939;SDS011;1984;48.312;9.244;2022-10-28T15:18:50;4.60;;;2.23;;
3939;SDS011;1984;48.312;9.244;2022-10-28T15:21:19;10.33;;;2.40;;
3939;SDS011;1984;48.312;9.244;2022-10-28T15:23:59;9.43;;;2.17;;
3939;SDS011;1984;48.312;9.244;2022-10-28T15:26:25;12.17;;;4.07;;
3939;SDS011;1984;48.312;9.244;2022-10-28T15:28:51;6.53;;;2.47;;
3939;SDS011;1984;48.312;9.244;2022-10-28T15:31:17;13.63;;;3.57;;
3939;SDS011;1984;48.312;9.244;2022-10-28T15:33:43;9.10;;;2.83;;
3939;SDS011;1984;48.312;9.244;2022-10-28T15:36:15;12.03;;;2.60;;
3939;SDS011;1984;48.312;9.244;2022-10-28T15:38:44;12.63;;;2.70;;
3939;SDS011;1984;48.312;9.244;2022-10-28T15:41:53;11.53;;;2.27;;
3939;SDS011;1984;48.312;9.244;2022-10-28T15:44:31;13.37;;;2.77;;
3939;SDS011;1984;48.312;9.244;2022-10-28T15:46:57;12.97;;;3.23;;
3939;SDS011;1984;48.312;9.244;2022-10-28T15:49:31;8.83;;;2.87;;
3939;SDS011;1984;48.312;9.244;2022-10-28T15:57:23;4.23;;;2.50;;
3939;SDS011;1984;48.312;9.244;2022-10-28T16:03:02;9.03;;;3.83;;
3939;SDS011;1984;48.312;9.244;2022-10-28T16:07:57;9.13;;;2.63;;
3939;SDS011;1984;48.312;9.244;2022-10-28T16:10:25;15.57;;;3.63;;
3939;SDS011;1984;48.312;9.244;2022-10-28T16:12:55;23.73;;;3.77;;
3939;SDS011;1984;48.312;9.244;2022-10-28T16:15:21;9.53;;;3.00;;
3939;SDS011;1984;48.312;9.244;2022-10-28T16:17:47;11.87;;;3.60;;
3939;SDS011;1984;48.312;9.244;2022-10-28T16:20:13;9.73;;;3.53;;
3939;SDS011;1984;48.312;9.244;2022-10-28T16:22:44;16.57;;;4.13;;
3939;SDS011;1984;48.312;9.244;2022-10-28T16:25:11;11.00;;;2.97;;
3939;SDS011;1984;48.312;9.244;2022-10-28T16:27:41;11.50;;;4.17;;
3939;SDS011;1984;48.312;9.244;2022-10-28T16:30:07;9.50;;;3.97;;
3939;SDS011;1984;48.312;9.244;2022-10-28T16:32:35;16.03;;;4.33;;
3939;SDS011;1984;48.312;9.244;2022-10-28T16:35:03;16.40;;;3.97;;
3939;SDS011;1984;48.312;9.244;2022-10-28T16:37:42;9.43;;;3.13;;
3939;SDS011;1984;48.312;9.244;2022-10-28T16:40:08;12.07;;;3.43;;
3939;SDS011;1984;48.312;9.244;2022-10-28T16:42:34;20.77;;;4.07;;
3939;SDS011;1984;48.312;9.244;2022-10-28T16:45:01;9.90;;;4.47;;
3939;SDS011;1984;48.312;9.244;2022-10-28T16:47:28;9.80;;;3.60;;
3939;SDS011;1984;48.312;9.244;2022-10-28T16:49:54;10.93;;;3.30;;
3939;SDS011;1984;48.312;9.244;2022-10-28T16:52:28;8.37;;;3.17;;
3939;SDS011;1984;48.312;9.244;2022-10-28T16:54:54;12.40;;;3.50;;
3939;SDS011;1984;48.312;9.244;2022-10-28T16:57:21;9.20;;;3.50;;
3939;SDS011;1984;48.312;9.244;2022-10-28T16:59:47;9.30;;;3.50;;
3939;SDS011;1984;48.312;9.244;2022-10-28T17:04:44;12.73;;;3.93;;
3939;SDS011;1984;48.312;9.244;2022-10-28T17:07:10;15.23;;;4.40;;
3939;SDS011;1984;48.312;9.244;2022-10-28T17:09:40;22.67;;;5.33;;
3939;SDS011;1984;48.312;9.244;2022-10-28T17:12:06;12.60;;;5.20;;
3939;SDS011;1984;48.312;9.244;2022-10-28T17:14:36;10.17;;;4.83;;
3939;SDS011;1984;48.312;9.244;2022-10-28T17:17:01;10.70;;;4.03;;
3939;SDS011;1984;48.312;9.244;2022-10-28T17:19:27;11.97;;;4.60;;
3939;SDS011;1984;48.312;9.244;2022-10-28T17:21:52;9.53;;;4.13;;
3939;SDS011;1984;48.312;9.244;2022-10-28T17:24:18;14.77;;;4.90;;
3939;SDS011;1984;48.312;9.244;2022-10-28T17:26:44;17.67;;;6.17;;
3939;SDS011;1984;48.312;9.244;2022-10-28T17:29:11;17.03;;;6.70;;
3939;SDS011;1984;48.312;9.244;2022-10-28T17:31:36;15.33;;;8.90;;
3939;SDS011;1984;48.312;9.244;2022-10-28T17:34:02;29.70;;;10.40;;
3939;SDS011;1984;48.312;9.244;2022-10-28T17:36:27;27.87;;;11.67;;
3939;SDS011;1984;48.312;9.244;2022-10-28T17:38:53;26.30;;;9.90;;
3939;SDS011;1984;48.312;9.244;2022-10-28T17:41:18;26.17;;;10.63;;
3939;SDS011;1984;48.312;9.244;2022-10-28T17:43:44;25.00;;;7.77;;
3939;SDS011;1984;48.312;9.244;2022-10-28T17:46:10;19.33;;;6.70;;
3939;SDS011;1984;48.312;9.244;2022-10-28T17:48:35;11.80;;;6.17;;
3939;SDS011;1984;48.312;9.244;2022-10-28T17:51:01;13.03;;;7.20;;
3939;SDS011;1984;48.312;9.244;2022-10-28T17:53:26;17.80;;;6.53;;
3939;SDS011;1984;48.312;9.244;2022-10-28T17:55:55;19.43;;;7.73;;
3939;SDS011;1984;48.312;9.244;2022-10-28T17:58:25;16.13;;;7.10;;